< < Back
Terminal Aerodrome Forecast


Current Version              Previous Versions:   1  2  3  4  5  6  7  8  9  

Terminal Aerodrome Forecast

474
FTUS42 KGSP 292320
TAFGSP
TAF
KGSP 292320Z 3000/3024 24009KT P6SM SCT050 BKN110
      TEMPO 3000/3002 VRB10G17KT 4SM -TSRA BKN050CB
     FM300200 24005KT P6SM BKN070
     FM300400 24003KT P6SM SCT070
     FM301900 24008KT P6SM SCT070 PROB30 3020/3024 4SM -TSRA
      BKN090CB=



Latest METAR

543
SAUS70 KWBC 301600 RRE
MTRGSP
METAR KGSP 301553Z VRB04KT 10SM FEW085 OVC110 31/22 A3004 RMK AO2 SLP159
T03060217


USA.gov is the U.S. government's official web portal to all federal, state and local government web resources and services.